createdAt,value
2019-02-09T00:00:31.252Z,66.40
2019-02-09T00:02:58.667Z,66.50
2019-02-09T00:05:25.995Z,66.50
2019-02-09T00:07:53.408Z,66.90
2019-02-09T00:10:20.717Z,66.50
2019-02-09T00:12:48.053Z,67.40
2019-02-09T00:15:15.447Z,67.20
2019-02-09T00:17:42.885Z,67.10
2019-02-09T00:20:10.435Z,67.10
2019-02-09T00:22:37.914Z,67.20
2019-02-09T00:25:05.934Z,67.20
2019-02-09T00:27:33.401Z,66.70
2019-02-09T00:30:00.707Z,66.60
2019-02-09T00:32:28.271Z,66.80
2019-02-09T00:34:55.914Z,66.60
2019-02-09T00:37:23.240Z,67.00
2019-02-09T00:39:50.647Z,66.80
2019-02-09T00:42:18.344Z,66.40
2019-02-09T00:44:45.707Z,66.30
2019-02-09T00:47:13.193Z,66.50
2019-02-09T00:49:40.629Z,66.30
2019-02-09T00:52:08.106Z,66.10
2019-02-09T00:54:35.876Z,67.40
2019-02-09T00:57:03.214Z,67.20
2019-02-09T00:59:30.561Z,67.00
2019-02-09T01:01:57.994Z,67.20
2019-02-09T01:04:25.453Z,67.50
2019-02-09T01:06:52.774Z,66.90
2019-02-09T01:09:20.170Z,67.80
2019-02-09T01:11:47.471Z,67.60
2019-02-09T01:14:14.802Z,66.80
2019-02-09T01:16:42.118Z,68.00
2019-02-09T01:19:09.508Z,67.60
2019-02-09T01:21:36.843Z,68.40
2019-02-09T01:24:04.114Z,67.30
2019-02-09T01:26:31.404Z,67.10
2019-02-09T01:28:58.688Z,66.50
2019-02-09T01:31:26.094Z,66.80
2019-02-09T01:33:53.736Z,67.30
2019-02-09T01:36:21.128Z,67.60
2019-02-09T01:38:48.448Z,68.30
2019-02-09T01:41:15.767Z,68.50
2019-02-09T01:43:43.188Z,68.60
2019-02-09T01:46:10.498Z,67.50
2019-02-09T01:48:37.836Z,68.10
2019-02-09T01:51:05.141Z,69.00
2019-02-09T01:53:32.434Z,68.30
2019-02-09T01:56:00.043Z,68.40
2019-02-09T01:58:27.411Z,68.50
2019-02-09T02:00:54.717Z,69.20
2019-02-09T02:03:22.115Z,68.30
2019-02-09T02:05:49.778Z,67.70
2019-02-09T02:08:21.828Z,67.10
2019-02-09T02:10:49.150Z,66.80
2019-02-09T02:13:16.936Z,67.10
2019-02-09T02:15:44.235Z,67.10
2019-02-09T02:18:11.532Z,66.90
2019-02-09T02:20:39.027Z,66.90
2019-02-09T02:23:06.432Z,66.60
2019-02-09T02:25:33.944Z,66.90
2019-02-09T02:28:01.323Z,66.80
2019-02-09T02:30:33.705Z,67.10
2019-02-09T02:33:00.988Z,66.30
2019-02-09T02:35:28.684Z,67.50
2019-02-09T02:37:56.093Z,67.00
2019-02-09T02:40:23.462Z,67.10
2019-02-09T02:42:50.810Z,67.00
2019-02-09T02:45:18.453Z,67.10
2019-02-09T02:47:45.732Z,66.80
2019-02-09T02:50:15.088Z,66.80
2019-02-09T02:52:42.424Z,66.70
2019-02-09T02:55:11.448Z,66.70
2019-02-09T02:57:38.872Z,67.20
2019-02-09T03:00:09.738Z,67.30
2019-02-09T03:02:37.130Z,66.70
2019-02-09T03:05:05.498Z,66.00
2019-02-09T03:07:32.834Z,66.10
2019-02-09T03:10:00.189Z,66.00
2019-02-09T03:12:27.496Z,66.50
2019-02-09T03:14:54.813Z,66.20
2019-02-09T03:17:22.133Z,66.30
2019-02-09T03:19:49.455Z,66.50
2019-02-09T03:22:16.868Z,66.50
2019-02-09T03:24:44.258Z,66.20
2019-02-09T03:27:11.907Z,66.70
2019-02-09T03:29:39.639Z,66.20
2019-02-09T03:32:07.026Z,65.70
2019-02-09T03:34:34.472Z,65.90
2019-02-09T03:37:01.828Z,65.90
2019-02-09T03:39:29.118Z,66.40
2019-02-09T03:41:56.429Z,66.10
2019-02-09T03:44:23.738Z,65.80
2019-02-09T03:46:51.156Z,65.90
2019-02-09T03:49:18.553Z,65.70
2019-02-09T03:51:46.186Z,65.60
2019-02-09T03:54:13.504Z,65.50
2019-02-09T03:56:40.776Z,65.90
2019-02-09T03:59:08.186Z,65.50
2019-02-09T04:01:36.005Z,65.40
2019-02-09T04:04:03.627Z,65.80
2019-02-09T04:06:30.924Z,66.10
2019-02-09T04:08:58.341Z,66.00
2019-02-09T04:11:25.759Z,65.80
2019-02-09T04:13:53.057Z,66.20
2019-02-09T04:16:20.797Z,66.10
2019-02-09T04:18:48.093Z,67.00
2019-02-09T04:21:15.381Z,67.50
2019-02-09T04:23:42.739Z,68.50
2019-02-09T04:26:10.091Z,67.50
2019-02-09T04:28:37.422Z,67.30
2019-02-09T04:31:06.528Z,67.60
2019-02-09T04:33:34.048Z,69.40
2019-02-09T04:36:01.328Z,68.50
2019-02-09T04:38:28.628Z,68.00
2019-02-09T04:40:55.925Z,68.10
2019-02-09T04:43:23.207Z,67.70
2019-02-09T04:45:50.845Z,66.70
2019-02-09T04:48:18.112Z,67.10
2019-02-09T04:50:45.581Z,67.20
2019-02-09T04:53:12.975Z,66.50
2019-02-09T04:55:40.357Z,66.90
2019-02-09T04:58:07.642Z,66.80
2019-02-09T05:00:34.955Z,66.20
2019-02-09T05:03:02.656Z,67.20
2019-02-09T05:05:30.455Z,67.70
2019-02-09T05:07:57.870Z,67.20
2019-02-09T05:10:25.279Z,68.30
2019-02-09T05:12:53.069Z,68.20
2019-02-09T05:15:20.812Z,67.80
2019-02-09T05:17:48.313Z,68.10
2019-02-09T05:20:17.450Z,68.50
2019-02-09T05:22:44.874Z,69.60
2019-02-09T05:25:12.796Z,70.70
2019-02-09T05:27:40.064Z,71.10
2019-02-09T05:30:10.976Z,71.40
2019-02-09T05:32:38.286Z,71.80
2019-02-09T05:35:06.450Z,71.90
2019-02-09T05:37:33.764Z,71.90
2019-02-09T05:40:01.193Z,71.60
2019-02-09T05:42:28.576Z,70.20
2019-02-09T05:44:56.790Z,69.70
2019-02-09T05:47:24.168Z,69.70
2019-02-09T05:49:51.587Z,70.00
2019-02-09T05:52:19.024Z,71.00
2019-02-09T05:54:46.369Z,70.80
2019-02-09T05:57:13.781Z,69.60
2019-02-09T05:59:41.352Z,69.60
2019-02-09T06:02:08.833Z,69.10
2019-02-09T06:04:36.289Z,68.10
2019-02-09T06:07:03.725Z,67.80
2019-02-09T06:09:31.099Z,68.30
2019-02-09T06:11:58.418Z,68.20
2019-02-09T06:14:25.683Z,68.20
2019-02-09T06:16:53.110Z,67.40
2019-02-09T06:19:20.388Z,67.20
2019-02-09T06:21:47.667Z,67.50
2019-02-09T06:24:14.969Z,67.40
2019-02-09T06:26:42.368Z,67.60
2019-02-09T06:29:09.700Z,68.40
2019-02-09T06:31:40.911Z,68.30
2019-02-09T06:34:06.259Z,69.40
2019-02-09T06:36:33.567Z,68.50
2019-02-09T06:39:00.963Z,69.00
2019-02-09T06:41:28.411Z,68.30
2019-02-09T06:43:55.839Z,68.00
2019-02-09T06:46:23.224Z,67.40
2019-02-09T06:48:50.526Z,67.00
2019-02-09T06:51:17.851Z,67.70
2019-02-09T06:53:45.187Z,68.90
2019-02-09T06:56:12.565Z,69.10
2019-02-09T06:58:40.411Z,69.40
2019-02-09T07:01:07.795Z,69.40
2019-02-09T07:03:35.493Z,70.10
2019-02-09T07:06:03.473Z,70.10
2019-02-09T07:08:30.875Z,69.80
2019-02-09T07:10:58.208Z,70.80
2019-02-09T07:13:25.605Z,71.70
2019-02-09T07:15:53.065Z,71.50
2019-02-09T07:18:20.490Z,70.70
2019-02-09T07:20:47.905Z,70.10
2019-02-09T07:23:15.297Z,69.40
2019-02-09T07:25:42.657Z,70.40
2019-02-09T07:28:10.086Z,71.00
2019-02-09T07:30:37.410Z,71.10
2019-02-09T07:33:06.069Z,70.50
2019-02-09T07:35:33.537Z,70.70
2019-02-09T07:38:00.987Z,71.20
2019-02-09T07:40:28.397Z,71.30
2019-02-09T07:42:55.862Z,70.70
2019-02-09T07:45:24.659Z,69.60
2019-02-09T07:47:52.118Z,70.20
2019-02-09T07:50:20.950Z,71.30
2019-02-09T07:52:48.395Z,71.10
2019-02-09T07:55:15.956Z,70.40
2019-02-09T07:57:43.395Z,70.20
2019-02-09T08:00:14.013Z,70.60
2019-02-09T08:02:41.338Z,70.70
2019-02-09T08:05:09.647Z,70.30
2019-02-09T08:07:37.051Z,71.00
2019-02-09T08:10:06.345Z,71.80
2019-02-09T08:12:33.743Z,73.20
2019-02-09T08:15:01.121Z,73.40
2019-02-09T08:17:28.557Z,73.50
2019-02-09T08:19:55.969Z,74.00
2019-02-09T08:22:23.390Z,73.70
2019-02-09T08:24:50.720Z,73.00
2019-02-09T08:27:23.422Z,72.60
2019-02-09T08:29:47.904Z,72.60
2019-02-09T08:32:15.325Z,73.20
2019-02-09T08:34:42.772Z,74.10
2019-02-09T08:37:10.252Z,74.70
2019-02-09T08:39:37.897Z,75.00
2019-02-09T08:42:05.378Z,75.60
2019-02-09T08:44:32.829Z,75.80
2019-02-09T08:47:00.189Z,76.30
2019-02-09T08:49:27.521Z,75.30
2019-02-09T08:51:54.994Z,75.30
2019-02-09T08:54:22.412Z,75.40
2019-02-09T08:56:49.855Z,75.40
2019-02-09T08:59:17.250Z,75.00
2019-02-09T09:01:44.575Z,75.40
2019-02-09T09:04:12.047Z,75.70
2019-02-09T09:06:39.576Z,76.10
2019-02-09T09:09:09.508Z,76.30
2019-02-09T09:11:36.926Z,75.90
2019-02-09T09:14:04.370Z,75.60
2019-02-09T09:16:31.725Z,75.60
2019-02-09T09:18:59.192Z,75.30
2019-02-09T09:21:26.650Z,75.30
2019-02-09T09:23:54.206Z,74.90
2019-02-09T09:26:21.697Z,74.50
2019-02-09T09:28:49.121Z,74.10
2019-02-09T09:31:16.458Z,74.20
2019-02-09T09:33:46.855Z,74.10
2019-02-09T09:36:14.265Z,74.90
2019-02-09T09:38:41.744Z,75.00
2019-02-09T09:41:09.215Z,74.80
2019-02-09T09:43:37.216Z,74.80
2019-02-09T09:46:04.880Z,74.60
2019-02-09T09:48:32.379Z,74.40
2019-02-09T09:50:59.772Z,74.50
2019-02-09T09:53:27.319Z,74.60
2019-02-09T09:55:54.768Z,74.70
2019-02-09T09:58:22.184Z,73.80
2019-02-09T10:00:49.668Z,73.50
2019-02-09T10:03:17.455Z,73.50
2019-02-09T10:05:44.944Z,74.00
2019-02-09T10:08:12.774Z,73.80
2019-02-09T10:10:40.110Z,73.70
2019-02-09T10:13:07.572Z,72.70
2019-02-09T10:15:35.089Z,72.70
2019-02-09T10:18:02.662Z,71.50
2019-02-09T10:20:30.066Z,72.00
2019-02-09T10:22:57.536Z,71.90
2019-02-09T10:25:25.038Z,71.50
2019-02-09T10:27:53.085Z,70.80
2019-02-09T10:30:25.071Z,69.50
2019-02-09T10:32:52.808Z,70.00
2019-02-09T10:35:20.729Z,70.70
2019-02-09T10:37:48.196Z,69.10
2019-02-09T10:40:18.239Z,69.00
2019-02-09T10:42:45.648Z,68.70
2019-02-09T10:45:17.048Z,68.70
2019-02-09T10:47:44.457Z,68.00
2019-02-09T10:50:15.726Z,67.40
2019-02-09T10:52:43.170Z,67.30
2019-02-09T10:55:11.134Z,67.40
2019-02-09T10:57:38.484Z,67.60
2019-02-09T11:00:14.032Z,68.30
2019-02-09T11:02:41.428Z,66.90
2019-02-09T11:05:09.773Z,68.30
2019-02-09T11:07:37.231Z,68.00
2019-02-09T11:10:06.775Z,67.50
2019-02-09T11:12:34.289Z,67.30
2019-02-09T11:15:01.696Z,66.90
2019-02-09T11:17:29.105Z,66.40
2019-02-09T11:19:56.556Z,66.80
2019-02-09T11:22:23.973Z,66.30
2019-02-09T11:24:51.474Z,65.40
2019-02-09T11:27:18.928Z,65.20
2019-02-09T11:29:46.338Z,65.30
2019-02-09T11:32:13.675Z,65.80
2019-02-09T11:34:41.103Z,65.70
2019-02-09T11:37:08.517Z,65.20
2019-02-09T11:39:36.339Z,65.90
2019-02-09T11:42:03.970Z,66.30
2019-02-09T11:44:31.398Z,65.70
2019-02-09T11:46:58.727Z,64.90
2019-02-09T11:49:26.076Z,66.10
2019-02-09T11:51:53.429Z,65.00
2019-02-09T11:54:20.925Z,65.40
2019-02-09T11:56:48.974Z,65.90
2019-02-09T11:59:16.429Z,65.10
2019-02-09T12:01:43.894Z,63.20
2019-02-09T12:04:11.233Z,62.00
2019-02-09T12:06:38.728Z,62.20
2019-02-09T12:09:08.278Z,60.20
2019-02-09T12:11:35.720Z,60.40
2019-02-09T12:14:03.438Z,59.60
2019-02-09T12:16:30.909Z,58.40
2019-02-09T12:18:58.646Z,59.50
2019-02-09T12:21:26.109Z,56.30
2019-02-09T12:23:53.500Z,57.00
2019-02-09T12:26:20.989Z,57.70
2019-02-09T12:28:48.388Z,57.10
2019-02-09T12:31:15.838Z,56.30
2019-02-09T12:33:43.702Z,57.40
2019-02-09T12:36:12.225Z,58.40
2019-02-09T12:38:39.665Z,56.60
2019-02-09T12:41:09.478Z,57.30
2019-02-09T12:43:36.907Z,58.20
2019-02-09T12:46:04.369Z,57.30
2019-02-09T12:48:31.842Z,57.10
2019-02-09T12:50:59.336Z,57.70
2019-02-09T12:53:26.754Z,57.50
2019-02-09T12:55:54.233Z,57.80
2019-02-09T12:58:21.677Z,58.10
2019-02-09T13:00:49.205Z,57.70
2019-02-09T13:03:19.868Z,59.00
2019-02-09T13:05:47.577Z,59.30
2019-02-09T13:08:16.573Z,59.30
2019-02-09T13:10:44.258Z,58.80
2019-02-09T13:13:11.939Z,57.10
2019-02-09T13:15:39.639Z,57.70
2019-02-09T13:18:07.309Z,57.70
2019-02-09T13:20:34.983Z,58.50
2019-02-09T13:23:03.673Z,57.70
2019-02-09T13:25:31.618Z,57.30
2019-02-09T13:27:59.321Z,57.90
2019-02-09T13:30:29.246Z,57.90
2019-02-09T13:32:57.637Z,57.80
2019-02-09T13:35:25.164Z,58.20
2019-02-09T13:37:52.720Z,58.60
2019-02-09T13:40:20.364Z,59.50
2019-02-09T13:42:47.805Z,59.40
2019-02-09T13:45:23.907Z,60.00
2019-02-09T13:47:51.306Z,59.10
2019-02-09T13:50:18.825Z,59.40
2019-02-09T13:52:46.261Z,60.20
2019-02-09T13:55:13.877Z,59.70
2019-02-09T13:57:41.644Z,59.60
2019-02-09T14:00:12.664Z,60.10
2019-02-09T14:02:40.038Z,60.20
2019-02-09T14:05:08.143Z,59.60
2019-02-09T14:07:35.521Z,59.70
2019-02-09T14:10:04.156Z,60.20
2019-02-09T14:12:31.696Z,60.90
2019-02-09T14:14:59.149Z,60.00
2019-02-09T14:17:26.539Z,59.90
2019-02-09T14:19:53.910Z,59.70
2019-02-09T14:22:21.371Z,60.10
2019-02-09T14:24:48.868Z,59.60
2019-02-09T14:27:18.108Z,59.90
2019-02-09T14:29:45.543Z,60.20
2019-02-09T14:32:13.562Z,59.80
2019-02-09T14:34:41.009Z,59.60
2019-02-09T14:37:08.408Z,60.00
2019-02-09T14:39:35.886Z,59.90
2019-02-09T14:42:03.598Z,60.40
2019-02-09T14:44:31.112Z,60.40
2019-02-09T14:46:58.665Z,60.40
2019-02-09T14:49:26.169Z,60.40
2019-02-09T14:51:53.586Z,59.90
2019-02-09T14:54:21.069Z,60.20
2019-02-09T14:56:48.813Z,60.70
2019-02-09T14:59:16.619Z,60.60
2019-02-09T15:01:44.355Z,60.00
2019-02-09T15:04:11.797Z,60.00
2019-02-09T15:06:39.227Z,59.80
2019-02-09T15:09:07.910Z,59.60
2019-02-09T15:11:35.432Z,60.30
2019-02-09T15:14:04.215Z,60.30
2019-02-09T15:16:44.285Z,60.40
2019-02-09T15:19:11.897Z,61.00
2019-02-09T15:21:39.343Z,61.20
2019-02-09T15:24:06.792Z,61.10
2019-02-09T15:26:34.231Z,61.30
2019-02-09T15:29:02.026Z,61.10
2019-02-09T15:31:29.466Z,61.00
2019-02-09T15:33:56.946Z,60.80
2019-02-09T15:36:24.352Z,60.30
2019-02-09T15:38:51.767Z,60.10
2019-02-09T15:41:19.325Z,60.50
2019-02-09T15:43:46.782Z,60.50
2019-02-09T15:46:14.275Z,60.30
2019-02-09T15:48:41.755Z,60.40
2019-02-09T15:51:09.216Z,60.40
2019-02-09T15:53:36.744Z,60.60
2019-02-09T15:56:04.367Z,60.80
2019-02-09T15:58:31.883Z,60.40
2019-02-09T16:00:59.339Z,60.10
2019-02-09T16:03:27.126Z,60.70
2019-02-09T16:05:54.598Z,60.90
2019-02-09T16:08:22.104Z,60.50
2019-02-09T16:10:49.656Z,60.10
2019-02-09T16:13:17.144Z,60.90
2019-02-09T16:15:45.208Z,60.30
2019-02-09T16:18:12.576Z,60.10
2019-02-09T16:20:40.075Z,58.90
2019-02-09T16:23:07.539Z,59.80
2019-02-09T16:25:35.382Z,59.50
2019-02-09T16:28:03.138Z,60.10
2019-02-09T16:30:30.534Z,59.10
2019-02-09T16:32:58.257Z,58.90
2019-02-09T16:35:25.729Z,58.70
2019-02-09T16:37:53.294Z,58.80
2019-02-09T16:40:22.577Z,58.80
2019-02-09T16:42:50.042Z,59.50
2019-02-09T16:45:22.652Z,59.80
2019-02-09T16:47:50.231Z,60.10
2019-02-09T16:50:17.759Z,59.70
2019-02-09T16:52:45.231Z,60.20
2019-02-09T16:55:13.804Z,60.50
2019-02-09T16:57:41.289Z,59.60
2019-02-09T17:00:12.287Z,59.40
2019-02-09T17:02:39.811Z,59.50
2019-02-09T17:05:07.634Z,60.00
2019-02-09T17:07:35.079Z,60.10
2019-02-09T17:10:04.095Z,61.10
2019-02-09T17:12:31.833Z,60.30
2019-02-09T17:14:59.345Z,59.80
2019-02-09T17:17:26.818Z,59.80
2019-02-09T17:19:54.283Z,59.70
2019-02-09T17:22:21.746Z,60.10
2019-02-09T17:24:50.109Z,59.40
2019-02-09T17:27:17.804Z,59.90
2019-02-09T17:29:45.350Z,59.80
2019-02-09T17:32:12.735Z,60.10
2019-02-09T17:34:41.136Z,60.50
2019-02-09T17:37:09.198Z,60.50
2019-02-09T17:39:36.526Z,60.90
2019-02-09T17:42:04.075Z,61.10
2019-02-09T17:44:31.840Z,61.80
2019-02-09T17:46:59.357Z,61.60
2019-02-09T17:49:26.809Z,61.10
2019-02-09T17:51:54.262Z,61.00
2019-02-09T17:54:21.750Z,60.60
2019-02-09T17:56:49.237Z,60.80
2019-02-09T17:59:16.681Z,60.30
2019-02-09T18:01:44.142Z,60.30
2019-02-09T18:04:11.534Z,60.00
2019-02-09T18:06:39.022Z,60.00
2019-02-09T18:09:07.158Z,60.10
2019-02-09T18:11:34.948Z,59.60
2019-02-09T18:14:02.604Z,60.40
2019-02-09T18:16:30.076Z,60.40
2019-02-09T18:18:57.444Z,60.50
2019-02-09T18:21:24.969Z,60.60
2019-02-09T18:23:52.784Z,60.40
2019-02-09T18:26:20.302Z,60.70
2019-02-09T18:28:47.804Z,60.70
2019-02-09T18:31:15.624Z,60.90
2019-02-09T18:33:43.204Z,61.30
2019-02-09T18:36:10.771Z,61.10
2019-02-09T18:38:38.346Z,61.00
2019-02-09T18:41:05.976Z,61.10
2019-02-09T18:43:33.760Z,61.40
2019-02-09T18:46:01.289Z,61.30
2019-02-09T18:48:29.125Z,61.80
2019-02-09T18:50:56.655Z,61.60
2019-02-09T18:53:24.279Z,61.70
2019-02-09T18:55:51.754Z,61.60
2019-02-09T18:58:19.874Z,61.90
2019-02-09T19:00:48.051Z,61.70
2019-02-09T19:03:15.519Z,61.50
2019-02-09T19:05:43.065Z,61.80
2019-02-09T19:08:10.729Z,61.80
2019-02-09T19:10:38.317Z,61.90
2019-02-09T19:13:05.919Z,62.10
2019-02-09T19:15:33.625Z,62.60
2019-02-09T19:18:01.136Z,63.10
2019-02-09T19:20:34.284Z,64.80
2019-02-09T19:23:02.414Z,64.70
2019-02-09T19:25:30.325Z,64.70
2019-02-09T19:27:57.895Z,64.40
2019-02-09T19:30:26.094Z,63.90
2019-02-09T19:32:54.071Z,63.90
2019-02-09T19:35:21.719Z,64.10
2019-02-09T19:37:49.675Z,63.20
2019-02-09T19:40:17.460Z,63.70
2019-02-09T19:42:45.870Z,63.30
2019-02-09T19:45:25.582Z,62.80
2019-02-09T19:47:53.536Z,64.00
2019-02-09T19:50:21.340Z,63.40
2019-02-09T19:52:48.975Z,63.20
2019-02-09T19:55:21.897Z,62.60
2019-02-09T19:57:49.425Z,63.00
2019-02-09T20:00:22.537Z,63.50
2019-02-09T20:02:50.479Z,63.30
2019-02-09T20:05:20.078Z,63.30
2019-02-09T20:07:47.738Z,63.10
2019-02-09T20:10:18.145Z,63.50
2019-02-09T20:12:46.207Z,63.60
2019-02-09T20:15:14.175Z,63.40
2019-02-09T20:17:41.847Z,63.30
2019-02-09T20:20:10.509Z,63.00
2019-02-09T20:22:38.120Z,63.10
2019-02-09T20:25:09.060Z,63.00
2019-02-09T20:27:36.563Z,62.90
2019-02-09T20:30:07.567Z,63.10
2019-02-09T20:32:35.097Z,63.10
2019-02-09T20:35:02.620Z,63.60
2019-02-09T20:37:30.224Z,63.80
2019-02-09T20:39:57.691Z,63.80
2019-02-09T20:42:25.460Z,64.50
2019-02-09T20:44:53.025Z,64.50
2019-02-09T20:47:21.020Z,64.60
2019-02-09T20:49:48.624Z,64.90
2019-02-09T20:52:16.197Z,65.30
2019-02-09T20:54:43.700Z,65.40
2019-02-09T20:57:11.224Z,65.70
2019-02-09T20:59:39.097Z,65.40
2019-02-09T21:02:06.954Z,65.40
2019-02-09T21:04:34.503Z,64.90
2019-02-09T21:07:01.992Z,64.80
2019-02-09T21:09:29.484Z,64.80
2019-02-09T21:11:57.032Z,64.80
2019-02-09T21:14:24.586Z,64.80
2019-02-09T21:16:52.147Z,65.20
2019-02-09T21:19:19.722Z,65.20
2019-02-09T21:21:48.809Z,66.10
2019-02-09T21:24:16.630Z,65.90
2019-02-09T21:26:44.187Z,66.30
2019-02-09T21:29:11.691Z,66.00
2019-02-09T21:31:39.204Z,66.80
2019-02-09T21:34:06.737Z,66.70
2019-02-09T21:36:34.187Z,66.20
2019-02-09T21:39:01.650Z,66.10
2019-02-09T21:41:29.350Z,65.90
2019-02-09T21:43:56.828Z,65.90
2019-02-09T21:46:24.344Z,65.80
2019-02-09T21:48:51.841Z,65.90
2019-02-09T21:51:19.327Z,66.00
2019-02-09T21:53:46.823Z,65.80
2019-02-09T21:56:14.356Z,66.30
2019-02-09T21:58:41.850Z,66.20
2019-02-09T22:01:09.423Z,66.40
2019-02-09T22:03:36.998Z,66.20
2019-02-09T22:06:04.443Z,66.40
2019-02-09T22:08:31.916Z,66.10
2019-02-09T22:10:59.781Z,66.20
2019-02-09T22:13:27.276Z,66.40
2019-02-09T22:15:54.759Z,66.30
2019-02-09T22:18:22.293Z,66.10
2019-02-09T22:20:52.917Z,66.10
2019-02-09T22:23:18.933Z,66.00
2019-02-09T22:25:46.411Z,66.20
2019-02-09T22:28:13.858Z,66.30
2019-02-09T22:30:41.341Z,66.20
2019-02-09T22:33:08.814Z,66.40
2019-02-09T22:35:36.289Z,66.40
2019-02-09T22:38:04.310Z,66.30
2019-02-09T22:40:32.869Z,66.30
2019-02-09T22:43:00.637Z,66.20
2019-02-09T22:45:29.546Z,66.40
2019-02-09T22:47:57.440Z,66.50
2019-02-09T22:50:30.214Z,66.40
2019-02-09T22:52:57.901Z,66.50
2019-02-09T22:55:25.459Z,66.50
2019-02-09T22:57:52.791Z,66.70
2019-02-09T23:00:40.733Z,66.60
2019-02-09T23:03:09.557Z,66.60
2019-02-09T23:06:14.207Z,66.60
2019-02-09T23:08:41.668Z,66.80
2019-02-09T23:11:09.085Z,66.90
2019-02-09T23:13:36.544Z,67.00
2019-02-09T23:16:04.290Z,66.90
2019-02-09T23:18:32.059Z,66.80
2019-02-09T23:20:59.521Z,66.80
2019-02-09T23:23:26.937Z,66.90
2019-02-09T23:25:55.050Z,66.70
2019-02-09T23:28:22.574Z,66.80
2019-02-09T23:30:50.326Z,67.00
2019-02-09T23:33:17.784Z,66.90
2019-02-09T23:35:45.536Z,66.80
2019-02-09T23:38:12.856Z,66.70
2019-02-09T23:40:40.221Z,66.80
2019-02-09T23:43:07.571Z,66.80
2019-02-09T23:45:34.968Z,67.00
2019-02-09T23:48:02.736Z,67.10
2019-02-09T23:50:30.579Z,67.10
2019-02-09T23:52:57.889Z,67.30
2019-02-09T23:55:25.238Z,67.10
2019-02-09T23:57:52.560Z,67.10
